Time;durP1;ratioP1;P1;durP2;ratioP2;P2;SDS_P1;SDS_P2;PMS_P1;PMS_P2;Temp;Humidity;BMP_temperature;BMP_pressure;BME280_temperature;BME280_humidity;BME280_pressure;Samples;Min_cycle;Max_cycle;Signal;HPM_P1;HPM_P2
2024/02/14 00:01:01;;;;;;;59.08;26.67;;;;;;;5.61;61.15;100747.88;4876797;28;96900;-75
2024/02/14 00:03:27;;;;;;;54.43;28.90;;;;;;;5.63;61.61;100743.50;4876649;28;97576;-76
2024/02/14 00:05:53;;;;;;;57.42;27.33;;;;;;;5.70;60.97;100746.06;4876712;28;101164;-76
2024/02/14 00:08:18;;;;;;;62.57;29.27;;;;;;;5.71;60.88;100743.47;4877129;28;96922;-76
2024/02/14 00:10:48;;;;;;;68.17;31.83;;;;;;;5.63;61.39;100747.84;4874690;28;96929;-76
2024/02/14 00:13:14;;;;;;;68.77;29.67;;;;;;;5.61;61.69;100754.81;4857279;28;97827;-76
2024/02/14 00:15:40;;;;;;;63.97;30.63;;;;;;;5.61;61.47;100747.88;4875433;28;100902;-76
2024/02/14 00:18:06;;;;;;;57.83;29.20;;;;;;;5.59;61.59;100761.78;4876157;28;96747;-76
2024/02/14 00:20:32;;;;;;;61.17;29.97;;;;;;;5.61;61.74;100754.81;4872945;28;96880;-76
2024/02/14 00:22:58;;;;;;;61.00;30.37;;;;;;;5.70;61.46;100748.66;4869536;28;98255;-77
2024/02/14 00:25:23;;;;;;;56.45;27.83;;;;;;;5.62;61.78;100761.75;4877370;28;97355;-76
2024/02/14 00:27:49;;;;;;;55.77;29.60;;;;;;;5.64;61.95;100760.88;4860228;28;96803;-76
2024/02/14 00:30:15;;;;;;;67.33;30.73;;;;;;;5.67;62.15;100770.38;4858496;28;96942;-77
2024/02/14 00:32:40;;;;;;;56.40;28.33;;;;;;;5.68;61.90;100759.97;4868284;28;101671;-75
2024/02/14 00:35:06;;;;;;;58.30;30.23;;;;;;;5.64;62.07;100758.28;4860060;28;101529;-76
2024/02/14 00:37:33;;;;;;;65.03;32.13;;;;;;;5.72;61.88;100759.94;4876347;28;97398;-76
2024/02/14 00:39:59;;;;;;;61.23;30.50;;;;;;;5.62;62.01;100759.16;4860758;28;96782;-76
2024/02/14 00:42:25;;;;;;;64.00;32.07;;;;;;;5.59;62.21;100761.78;4872297;28;97888;-76
2024/02/14 00:44:51;;;;;;;61.53;30.97;;;;;;;5.62;62.20;100765.22;4858170;28;101045;-76
2024/02/14 00:47:22;;;;;;;60.85;30.50;;;;;;;5.61;62.20;100758.31;4873827;28;96778;-76
2024/02/14 00:49:48;;;;;;;65.72;34.20;;;;;;;5.63;62.24;100761.75;4876547;28;96917;-76
2024/02/14 00:52:14;;;;;;;64.03;32.50;;;;;;;5.68;62.01;100759.97;4854547;28;101166;-76
2024/02/14 00:54:39;;;;;;;62.33;31.63;;;;;;;5.63;61.95;100766.94;4889303;28;97958;-76
2024/02/14 00:57:05;;;;;;;67.47;33.97;;;;;;;5.57;62.10;100761.78;4874516;28;96874;-76
2024/02/14 00:59:30;;;;;;;73.30;34.70;;;;;;;5.56;62.08;100767.03;4875618;28;96831;-76
2024/02/14 01:01:56;;;;;;;73.60;34.10;;;;;;;5.49;62.19;100760.09;4873986;28;97552;-75
2024/02/14 01:04:23;;;;;;;65.45;33.95;;;;;;;5.51;62.16;100758.38;4858456;28;101231;-76
2024/02/14 01:06:49;;;;;;;73.70;36.23;;;;;;;5.44;62.83;100761.00;4877030;28;96787;-75
2024/02/14 01:09:15;;;;;;;71.20;33.65;;;;;;;5.50;62.29;100762.72;4874827;28;96707;-77
2024/02/14 01:11:41;;;;;;;67.43;33.33;;;;;;;5.42;62.20;100752.34;4877739;28;97437;-76
2024/02/14 01:14:07;;;;;;;69.80;32.83;;;;;;;5.43;62.16;100761.84;4864971;28;97349;-76
2024/02/14 01:16:32;;;;;;;66.87;32.57;;;;;;;5.45;62.07;100765.34;4878719;28;97507;-76
2024/02/14 01:19:04;;;;;;;65.80;31.80;;;;;;;5.41;61.97;100755.81;4860336;28;96884;-76
2024/02/14 01:21:29;;;;;;;64.03;31.90;;;;;;;5.38;62.15;100763.66;4864799;28;100657;-76
2024/02/14 01:23:56;;;;;;;60.00;31.97;;;;;;;5.37;62.22;100763.66;4876682;28;97416;-76
2024/02/14 01:26:21;;;;;;;61.07;31.70;;;;;;;5.39;62.00;100769.72;4876769;28;96847;-75
2024/02/14 01:28:48;;;;;;;59.53;29.43;;;;;;;5.37;61.69;100769.72;4862264;28;96830;-75
2024/02/14 01:31:13;;;;;;;60.22;31.05;;;;;;;5.36;62.17;100762.78;4876634;28;96810;-75
2024/02/14 01:33:40;;;;;;;59.67;31.20;;;;;;;5.37;61.99;100771.44;4857093;28;97537;-75
2024/02/14 01:36:05;;;;;;;65.73;32.87;;;;;;;5.33;61.89;100764.56;4876379;28;96842;-76
2024/02/14 01:38:35;;;;;;;58.77;30.23;;;;;;;5.36;62.16;100772.34;4875698;28;96881;-76
2024/02/14 01:41:05;;;;;;;61.30;30.33;;;;;;;5.39;61.59;100767.97;4875965;28;101610;-76
2024/02/14 01:43:31;;;;;;;62.37;31.03;;;;;;;5.36;61.80;100764.53;4859538;28;97458;-76
2024/02/14 01:46:05;;;;;;;57.57;28.30;;;;;;;5.36;61.95;100762.78;4875783;28;96893;-76
2024/02/14 01:48:31;;;;;;;64.73;29.27;;;;;;;5.40;61.61;100763.63;4875940;28;97030;-76
2024/02/14 01:50:57;;;;;;;59.47;30.53;;;;;;;5.33;61.71;100764.56;4872325;28;97409;-76
2024/02/14 01:53:25;;;;;;;57.47;28.40;;;;;;;5.22;62.01;100764.59;4855321;28;101240;-76
2024/02/14 01:55:51;;;;;;;60.13;28.50;;;;;;;5.29;61.89;100770.63;4859657;28;96862;-76
2024/02/14 01:58:17;;;;;;;61.53;30.17;;;;;;;5.30;61.59;100765.44;4872659;28;96945;-77
2024/02/14 02:00:43;;;;;;;51.73;25.50;;;;;;;5.22;62.19;100768.06;4863030;28;97668;-76
2024/02/14 02:03:13;;;;;;;51.20;26.30;;;;;;;5.23;62.00;100763.72;4854985;28;101455;-76
2024/02/14 02:05:38;;;;;;;50.60;26.93;;;;;;;5.24;61.53;100756.78;4878628;28;96855;-76
2024/02/14 02:08:04;;;;;;;53.80;28.63;;;;;;;5.26;61.55;100757.63;4878362;28;98554;-76
2024/02/14 02:10:30;;;;;;;54.73;28.50;;;;;;;5.24;61.33;100757.66;4874630;28;97891;-76
2024/02/14 02:13:00;;;;;;;56.93;27.37;;;;;;;5.20;61.66;100754.19;4873784;28;97376;-76
2024/02/14 02:15:26;;;;;;;54.80;27.93;;;;;;;5.12;61.60;100755.97;4861543;28;96825;-75
2024/02/14 02:17:53;;;;;;;56.93;28.97;;;;;;;5.13;61.44;100755.09;4877030;28;96789;-76
2024/02/14 02:20:19;;;;;;;58.97;27.40;;;;;;;4.99;61.51;100739.53;4893374;28;97989;-76
2024/02/14 02:22:47;;;;;;;56.57;28.73;;;;;;;5.01;61.60;100755.16;4858201;29;102469;-77
2024/02/14 02:25:12;;;;;;;54.10;26.67;;;;;;;4.92;61.72;100748.25;4878654;28;96757;-77
2024/02/14 02:27:38;;;;;;;59.30;27.50;;;;;;;4.98;61.61;100744.75;4876309;28;97002;-76
2024/02/14 02:30:06;;;;;;;51.50;27.13;;;;;;;4.93;61.59;100749.13;4861953;28;101076;-76
2024/02/14 02:32:32;;;;;;;58.30;28.80;;;;;;;4.86;61.52;100748.28;4870953;28;101305;-76
2024/02/14 02:34:59;;;;;;;55.80;27.77;;;;;;;4.87;61.74;100750.00;4882295;28;96814;-76
2024/02/14 02:37:25;;;;;;;55.13;27.80;;;;;;;4.91;61.62;100743.03;4878183;28;96933;-76
2024/02/14 02:39:51;;;;;;;54.00;28.33;;;;;;;4.89;61.51;100747.41;4877552;28;101656;-76
2024/02/14 02:42:18;;;;;;;53.33;27.10;;;;;;;4.82;61.41;100743.09;4873968;28;100930;-76
2024/02/14 02:44:46;;;;;;;62.23;29.43;;;;;;;4.82;61.78;100748.28;4888701;28;96842;-76
2024/02/14 02:47:12;;;;;;;54.23;26.50;;;;;;;4.80;61.41;100743.09;4878491;28;96976;-76
2024/02/14 02:49:38;;;;;;;53.77;27.33;;;;;;;4.70;61.65;100744.00;4877563;28;101119;-77
2024/02/14 02:52:04;;;;;;;57.80;28.13;;;;;;;4.73;61.80;100752.66;4877666;28;101025;-76
2024/02/14 02:54:30;;;;;;;59.47;27.67;;;;;;;4.70;62.00;100751.78;4862436;28;96886;-76
2024/02/14 02:56:56;;;;;;;61.57;28.17;;;;;;;4.71;61.35;100750.91;4875061;28;96909;-76
2024/02/14 02:59:21;;;;;;;57.47;27.57;;;;;;;4.71;61.67;100746.59;4865611;28;97589;-75
2024/02/14 03:01:49;;;;;;;52.87;26.83;;;;;;;4.65;61.86;100745.72;4877952;28;98473;-77
2024/02/14 03:04:19;;;;;;;56.23;26.00;;;;;;;4.63;61.92;100748.34;4860016;28;96726;-77
2024/02/14 03:06:45;;;;;;;52.27;26.40;;;;;;;4.62;61.98;100749.19;4876615;28;96916;-76
2024/02/14 03:09:12;;;;;;;49.70;26.80;;;;;;;4.63;61.73;100747.50;4858135;28;101137;-76
2024/02/14 03:11:38;;;;;;;55.57;25.63;;;;;;;4.70;61.68;100757.84;4874561;28;101643;-76
2024/02/14 03:14:03;;;;;;;51.30;25.10;;;;;;;4.74;61.04;100748.31;4859049;28;97069;-75
2024/02/14 03:16:30;;;;;;;49.47;26.77;;;;;;;4.71;60.92;100756.13;4889836;28;96872;-76
2024/02/14 03:18:55;;;;;;;55.90;25.30;;;;;;;4.73;61.08;100747.44;4876856;28;101422;-75
2024/02/14 03:21:21;;;;;;;46.23;24.33;;;;;;;4.81;61.04;100742.22;4875515;28;97418;-75
2024/02/14 03:23:46;;;;;;;45.10;25.10;;;;;;;4.62;61.71;100753.53;4876716;28;96804;-76
2024/02/14 03:26:13;;;;;;;47.37;25.30;;;;;;;4.62;61.78;100756.16;4861777;28;96842;-76
2024/02/14 03:28:39;;;;;;;46.20;26.67;;;;;;;4.56;62.12;100751.81;4877450;28;97445;-77
2024/02/14 03:31:04;;;;;;;47.13;25.03;;;;;;;4.51;61.99;100751.84;4875190;28;97431;-75
2024/02/14 03:33:30;;;;;;;46.20;24.73;;;;;;;4.54;61.69;100751.84;4871962;28;96934;-76
2024/02/14 03:35:55;;;;;;;46.20;24.27;;;;;;;4.53;61.77;100752.69;4876286;28;96929;-76
2024/02/14 03:38:29;;;;;;;55.43;26.47;;;;;;;4.49;61.73;100758.78;4873883;28;101133;-76
2024/02/14 03:40:54;;;;;;;53.27;26.67;;;;;;;4.42;61.97;100756.19;4877674;28;98436;-77
2024/02/14 03:43:21;;;;;;;48.23;26.03;;;;;;;4.48;61.93;100761.38;4869052;28;96937;-76
2024/02/14 03:45:47;;;;;;;54.93;26.17;;;;;;;4.28;62.31;100770.09;4874744;28;96894;-76
2024/02/14 03:48:12;;;;;;;54.10;27.20;;;;;;;4.14;62.58;100770.97;4873412;28;98187;-76
2024/02/14 03:50:39;;;;;;;61.20;30.00;;;;;;;4.24;62.39;100772.69;4876761;28;101755;-76
2024/02/14 03:53:05;;;;;;;52.90;27.33;;;;;;;4.23;62.35;100776.16;4860059;28;96814;-76
2024/02/14 03:55:31;;;;;;;54.43;27.33;;;;;;;4.07;62.56;100773.56;4874536;28;98689;-76
2024/02/14 03:57:56;;;;;;;47.83;26.53;;;;;;;3.99;63.15;100775.31;4874381;28;102004;-76
2024/02/14 04:00:22;;;;;;;57.00;26.53;;;;;;;3.99;63.19;100770.09;4877276;28;97420;-75
2024/02/14 04:02:48;;;;;;;53.47;27.53;;;;;;;4.06;62.96;100760.56;4878481;28;96842;-76
2024/02/14 04:05:14;;;;;;;51.73;26.10;;;;;;;4.09;62.93;100768.38;4874810;28;96877;-76
2024/02/14 04:07:40;;;;;;;50.87;27.23;;;;;;;4.05;62.76;100767.50;4878579;28;97501;-78
2024/02/14 04:10:06;;;;;;;46.27;26.27;;;;;;;4.15;62.46;100780.50;4863112;28;97632;-76
2024/02/14 04:12:50;;;;;;;55.47;27.43;;;;;;;4.11;62.48;100774.44;4870337;28;96894;-77
2024/02/14 04:15:15;;;;;;;56.10;28.23;;;;;;;4.14;62.79;100781.38;4885759;28;96779;-76
2024/02/14 04:17:41;;;;;;;60.03;28.57;;;;;;;3.84;63.26;100788.28;4860835;28;101170;-74
2024/02/14 04:20:07;;;;;;;62.43;30.33;;;;;;;3.79;63.42;100787.41;4875585;28;101381;-76
2024/02/14 04:22:33;;;;;;;59.73;30.20;;;;;;;3.87;63.50;100783.09;4876440;28;96772;-76
2024/02/14 04:24:59;;;;;;;46.83;26.77;;;;;;;3.92;63.10;100783.09;4873653;28;97053;-75
2024/02/14 04:27:24;;;;;;;55.93;27.93;;;;;;;3.68;63.53;100778.75;4889164;28;98185;-76
2024/02/14 04:29:50;;;;;;;58.67;29.37;;;;;;;3.75;63.60;100783.94;4859829;28;102105;-75
2024/02/14 04:32:17;;;;;;;58.73;29.43;;;;;;;3.83;63.53;100783.94;4874465;28;96799;-76
2024/02/14 04:34:43;;;;;;;48.57;27.07;;;;;;;3.71;63.84;100779.59;4871561;28;97364;-75
2024/02/14 04:37:13;;;;;;;56.17;28.20;;;;;;;3.72;63.67;100777.88;4891934;28;101222;-77
2024/02/14 04:39:42;;;;;;;53.27;25.90;;;;;;;3.80;63.60;100781.34;4864545;28;100974;-76
2024/02/14 04:42:07;;;;;;;56.53;26.07;;;;;;;3.94;63.12;100786.56;4876219;28;97306;-76
2024/02/14 04:44:34;;;;;;;53.77;27.63;;;;;;;3.87;63.05;100772.72;4873362;28;96966;-76
2024/02/14 04:47:00;;;;;;;52.47;27.10;;;;;;;3.78;63.30;100786.56;4859052;28;100957;-76
2024/02/14 04:49:26;;;;;;;60.23;27.77;;;;;;;3.67;64.02;100777.88;4876552;28;97948;-76
2024/02/14 04:51:57;;;;;;;54.13;27.07;;;;;;;3.63;63.63;100770.94;4859800;28;96935;-76
2024/02/14 04:54:23;;;;;;;57.55;28.42;;;;;;;3.44;64.23;100780.44;4870804;28;96955;-76
2024/02/14 04:56:48;;;;;;;53.83;28.47;;;;;;;3.51;64.14;100764.00;4872593;28;97650;-76
2024/02/14 04:59:14;;;;;;;51.50;27.20;;;;;;;3.71;63.76;100768.34;4871475;28;99998;-76
2024/02/14 05:01:40;;;;;;;52.03;27.17;;;;;;;3.82;63.25;100767.50;4875483;28;97282;-76
2024/02/14 05:04:06;;;;;;;53.43;27.03;;;;;;;3.80;63.22;100770.94;4859745;28;96836;-76
2024/02/14 05:06:32;;;;;;;60.17;27.53;;;;;;;3.78;63.27;100770.97;4858263;28;101475;-76
2024/02/14 05:08:58;;;;;;;48.47;26.00;;;;;;;3.81;63.38;100762.28;4872355;28;97213;-76
2024/02/14 05:11:23;;;;;;;57.03;26.87;;;;;;;3.69;63.53;100764.88;4870951;28;96857;-76
2024/02/14 05:13:49;;;;;;;58.27;26.47;;;;;;;3.70;63.48;100757.09;4874660;28;97136;-77
2024/02/14 05:16:18;;;;;;;56.87;26.23;;;;;;;3.66;63.82;100764.88;4882782;28;101270;-78
2024/02/14 05:18:44;;;;;;;52.57;27.37;;;;;;;3.57;64.23;100764.00;4873969;28;97450;-76
2024/02/14 05:21:09;;;;;;;56.97;27.73;;;;;;;3.58;63.97;100768.34;4873048;28;96949;-76
2024/02/14 05:23:38;;;;;;;49.63;26.23;;;;;;;3.69;63.61;100772.66;4873374;28;97020;-77
2024/02/14 05:26:04;;;;;;;51.17;27.33;;;;;;;3.76;63.14;100770.09;4832996;28;101156;-76
2024/02/14 05:28:34;;;;;;;52.20;28.17;;;;;;;3.77;63.08;100763.16;4875169;28;97962;-77
2024/02/14 05:31:00;;;;;;;52.10;26.60;;;;;;;3.67;63.43;100772.69;4872198;28;96861;-76
2024/02/14 05:33:26;;;;;;;54.97;27.20;;;;;;;3.69;63.52;100757.09;4880424;28;96877;-77
2024/02/14 05:35:52;;;;;;;53.73;27.63;;;;;;;3.73;63.28;100759.72;4863723;28;101464;-77
2024/02/14 05:38:20;;;;;;;56.10;28.30;;;;;;;3.75;63.24;100760.59;4880272;28;97502;-76
2024/02/14 05:40:46;;;;;;;53.00;27.73;;;;;;;3.73;63.43;100751.06;4863352;28;96855;-76
2024/02/14 05:43:12;;;;;;;51.20;27.90;;;;;;;3.72;63.34;100755.34;4872242;28;96962;-76
2024/02/14 05:45:38;;;;;;;48.77;25.03;;;;;;;3.67;62.94;100757.09;4866647;28;101828;-76
2024/02/14 05:48:03;;;;;;;48.00;25.40;;;;;;;3.63;63.47;100758.81;4873941;28;100893;-76
2024/02/14 05:50:29;;;;;;;56.33;27.07;;;;;;;3.61;63.46;100762.28;4872946;28;96941;-77
2024/02/14 05:52:57;;;;;;;56.77;25.23;;;;;;;3.62;63.89;100753.63;4881356;28;96846;-76
2024/02/14 05:55:22;;;;;;;47.37;25.00;;;;;;;3.65;63.32;100760.56;4874680;28;98044;-77
2024/02/14 05:57:48;;;;;;;67.83;27.80;;;;;;;3.63;63.63;100760.53;4873752;28;97959;-76
2024/02/14 06:00:21;;;;;;;50.10;26.60;;;;;;;3.60;63.45;100756.22;4874546;28;96869;-77
2024/02/14 06:02:48;;;;;;;55.17;27.57;;;;;;;3.72;63.29;100757.09;4871345;28;96816;-76
2024/02/14 06:05:14;;;;;;;51.87;26.23;;;;;;;3.62;63.56;100751.03;4874490;28;101627;-77
2024/02/14 06:07:44;;;;;;;53.73;26.20;;;;;;;3.49;64.08;100750.16;4858641;28;97367;-78
2024/02/14 06:10:26;;;;;;;49.47;24.50;;;;;;;3.63;63.58;100758.81;4860628;28;96929;-76
2024/02/14 06:12:52;;;;;;;51.80;26.48;;;;;;;3.30;64.66;100762.22;4877155;28;96846;-76
2024/02/14 06:15:17;;;;;;;43.53;25.07;;;;;;;3.23;65.02;100757.00;4855543;28;101151;-76
2024/02/14 06:17:43;;;;;;;46.90;23.63;;;;;;;3.20;65.17;100768.25;4870604;28;98551;-76
2024/02/14 06:20:13;;;;;;;46.90;24.23;;;;;;;3.23;65.32;100770.84;4874479;28;96801;-76
2024/02/14 06:22:39;;;;;;;52.97;24.80;;;;;;;3.22;65.52;100763.06;4874239;28;96868;-76
2024/02/14 06:25:05;;;;;;;49.70;24.60;;;;;;;3.34;65.41;100774.31;4871545;28;97939;-76
2024/02/14 06:27:32;;;;;;;47.97;23.00;;;;;;;3.37;65.40;100781.25;4874062;28;102004;-77
2024/02/14 06:29:59;;;;;;;44.37;23.63;;;;;;;3.37;64.91;100773.47;4875384;28;97176;-76
2024/02/14 06:32:25;;;;;;;49.13;23.10;;;;;;;3.33;65.31;100777.78;4873012;28;97301;-76
2024/02/14 06:34:50;;;;;;;42.77;22.20;;;;;;;3.28;65.62;100776.91;4889256;28;97514;-77
2024/02/14 06:37:16;;;;;;;39.50;21.40;;;;;;;3.38;65.23;100781.28;4872165;28;97744;-76
2024/02/14 06:39:42;;;;;;;49.17;22.73;;;;;;;3.13;65.96;100787.25;4878381;28;96930;-76
2024/02/14 06:42:07;;;;;;;40.00;21.27;;;;;;;3.13;65.53;100787.25;4866960;28;96932;-77
2024/02/14 06:44:33;;;;;;;43.40;22.23;;;;;;;3.28;65.92;100791.63;4860011;28;101612;-76
2024/02/14 06:46:58;;;;;;;43.43;21.53;;;;;;;3.35;65.68;100781.28;4872327;28;97987;-77
2024/02/14 06:49:24;;;;;;;43.20;22.67;;;;;;;3.39;65.50;100785.59;4872244;28;96792;-76
2024/02/14 06:51:49;;;;;;;53.30;23.27;;;;;;;3.32;65.78;100790.78;4878295;28;96816;-76
2024/02/14 06:54:17;;;;;;;42.70;20.87;;;;;;;3.45;65.51;100792.53;4882728;28;97424;-77
2024/02/14 06:56:42;;;;;;;46.00;21.03;;;;;;;3.48;65.66;100787.34;4888901;28;101197;-77
2024/02/14 06:59:19;;;;;;;46.30;24.93;;;;;;;3.56;65.21;100788.22;4880550;28;97149;-76
2024/02/14 07:01:44;;;;;;;44.50;20.40;;;;;;;3.57;65.58;100787.34;4897220;28;97108;-76
2024/02/14 07:04:10;;;;;;;39.33;21.10;;;;;;;3.58;65.78;100791.72;4864051;28;101088;-76
2024/02/14 07:06:36;;;;;;;41.63;21.73;;;;;;;3.79;65.14;100792.59;4880802;28;97401;-76
2024/02/14 07:09:06;;;;;;;37.87;20.60;;;;;;;3.91;64.60;100797.81;4880156;28;96830;-76
2024/02/14 07:11:32;;;;;;;34.67;18.80;;;;;;;4.03;64.86;100790.00;4863586;28;96819;-81
2024/02/14 07:13:58;;;;;;;37.70;19.50;;;;;;;3.92;64.99;100783.94;4862448;28;100967;-76
2024/02/14 07:16:23;;;;;;;32.77;17.90;;;;;;;3.92;64.82;100789.13;4873226;28;100828;-77
2024/02/14 07:18:49;;;;;;;35.67;19.27;;;;;;;3.98;64.92;100788.28;4875363;28;96916;-76
2024/02/14 07:21:15;;;;;;;35.80;18.73;;;;;;;3.95;64.98;100777.88;4879580;28;96899;-77
2024/02/14 07:23:40;;;;;;;38.30;19.90;;;;;;;4.14;64.98;100779.63;4859529;28;101294;-78
2024/02/14 07:26:06;;;;;;;32.33;18.80;;;;;;;4.06;65.19;100778.75;4871401;28;99715;-77
2024/02/14 07:28:37;;;;;;;37.87;19.87;;;;;;;4.26;64.43;100771.81;4879308;28;96831;-76
2024/02/14 07:31:03;;;;;;;33.17;18.95;;;;;;;4.53;64.32;100772.63;4877234;28;96919;-76
2024/02/14 07:33:28;;;;;;;35.50;19.63;;;;;;;4.83;64.05;100760.41;4860815;28;98466;-76
2024/02/14 07:35:55;;;;;;;34.60;17.63;;;;;;;5.16;62.85;100773.28;4892204;28;101970;-76
2024/02/14 07:38:22;;;;;;;32.33;18.10;;;;;;;5.59;62.63;100769.59;4851652;28;96990;-76
2024/02/14 07:40:49;;;;;;;38.87;19.20;;;;;;;5.83;61.39;100769.41;4862872;28;97078;-77
2024/02/14 07:43:15;;;;;;;39.78;16.70;;;;;;;5.98;61.08;100767.59;4872452;28;97684;-78
2024/02/14 07:45:40;;;;;;;43.17;19.07;;;;;;;6.31;60.01;100764.72;4874696;28;100947;-77
2024/02/14 07:48:07;;;;;;;41.13;19.05;;;;;;;6.45;59.54;100755.88;4876505;28;96779;-76
2024/02/14 07:50:35;;;;;;;33.50;17.33;;;;;;;6.78;59.34;100758.13;4875934;28;96904;-77
2024/02/14 07:53:01;;;;;;;31.50;17.48;;;;;;;7.15;58.68;100757.66;4872784;28;97279;-77
2024/02/14 07:55:33;;;;;;;35.33;17.65;;;;;;;7.51;57.90;100750.22;4862023;28;101003;-76
2024/02/14 07:57:59;;;;;;;44.35;16.33;;;;;;;7.71;57.19;100755.16;4861575;28;96825;-76
2024/02/14 08:00:44;;;;;;;29.40;16.10;;;;;;;7.97;57.17;100748.63;4876472;28;96911;-76
2024/02/14 08:03:10;;;;;;;33.55;16.35;;;;;;;8.48;55.54;100759.97;4860753;28;101931;-76
2024/02/14 08:05:35;;;;;;;25.33;14.85;;;;;;;8.66;54.43;100763.13;4871882;28;101187;-77
2024/02/14 08:08:01;;;;;;;28.75;16.05;;;;;;;8.91;54.76;100753.06;4875290;28;96871;-77
2024/02/14 08:10:26;;;;;;;32.47;15.68;;;;;;;8.96;53.34;100751.19;4876336;28;96910;-77
2024/02/14 08:12:52;;;;;;;28.10;14.88;;;;;;;8.86;53.08;100749.66;4877401;28;97998;-77
2024/02/14 08:15:42;;;;;;;30.92;15.63;;;;;;;8.94;53.72;100753.84;4877385;28;97582;-77
2024/02/14 08:18:12;;;;;;;24.52;13.43;;;;;;;9.21;52.97;100756.78;4876198;28;96671;-76
2024/02/14 08:20:38;;;;;;;24.17;14.05;;;;;;;9.42;52.49;100756.31;4863976;28;96777;-77
2024/02/14 08:36:28;;;;;;;22.55;12.18;;;;;;;11.08;48.59;100758.22;5010494;23;101978;-79
2024/02/14 08:38:54;;;;;;;19.35;11.00;;;;;;;11.36;48.72;100754.75;4853727;29;101061;-80
2024/02/14 08:41:38;;;;;;;20.52;11.65;;;;;;;11.37;48.12;100756.44;4844422;29;96918;-78
2024/02/14 08:44:07;;;;;;;21.48;12.48;;;;;;;11.65;47.50;100753.84;4850812;29;97043;-79
2024/02/14 08:46:32;;;;;;;20.63;10.30;;;;;;;12.01;47.28;100753.59;4838476;29;102261;-79
2024/02/14 08:49:01;;;;;;;18.52;10.93;;;;;;;12.59;46.11;100756.00;4836720;29;101389;-79
2024/02/14 08:51:27;;;;;;;17.05;10.85;;;;;;;12.67;45.93;100754.81;4847080;28;97307;-79
2024/02/14 08:53:55;;;;;;;19.13;11.98;;;;;;;12.94;45.29;100753.88;4854975;29;97998;-79
2024/02/14 08:56:22;;;;;;;20.83;10.82;;;;;;;13.75;44.38;100751.63;4832592;29;101654;-78
2024/02/14 08:58:48;;;;;;;20.90;10.48;;;;;;;13.94;43.62;100759.66;4847217;28;98014;-81
2024/02/14 09:01:15;;;;;;;17.80;9.43;;;;;;;14.08;43.32;100753.81;4820243;29;97231;-83
2024/02/14 09:03:43;;;;;;;17.65;10.45;;;;;;;14.74;42.59;100751.00;4813838;29;97405;-80
2024/02/14 09:06:08;;;;;;;14.05;9.63;;;;;;;14.23;42.02;100758.44;4849148;29;98853;-81
2024/02/14 09:08:34;;;;;;;19.13;10.23;;;;;;;14.50;43.22;100751.13;4848212;29;98017;-78
2024/02/14 09:11:00;;;;;;;16.15;9.90;;;;;;;14.48;42.52;100754.75;4847960;29;97473;-79
2024/02/14 09:13:27;;;;;;;16.80;9.98;;;;;;;14.58;41.93;100755.25;4860533;28;98144;-78
2024/02/14 09:15:54;;;;;;;17.65;9.65;;;;;;;14.09;43.50;100754.69;4845214;29;98034;-78
2024/02/14 09:18:19;;;;;;;20.65;9.68;;;;;;;14.34;42.55;100741.28;4854262;29;101571;-88
2024/02/14 09:20:49;;;;;;;18.10;10.52;;;;;;;14.98;41.52;100738.47;4823554;29;97570;-85
2024/02/14 09:23:20;;;;;;;20.15;10.48;;;;;;;15.08;40.85;100733.63;4830317;29;97334;-87
2024/02/14 09:25:47;;;;;;;17.10;10.53;;;;;;;15.13;41.44;100742.22;4842314;29;99466;-90
2024/02/14 09:28:14;;;;;;;17.17;10.18;;;;;;;14.74;42.08;100734.28;4841378;28;100209;-90
2024/02/14 09:30:39;;;;;;;19.95;11.70;;;;;;;15.19;41.15;100727.84;4819217;29;96898;-94
2024/02/14 09:33:05;;;;;;;18.65;11.52;;;;;;;15.58;40.39;100727.72;4835317;29;97118;-95
2024/02/14 09:35:31;;;;;;;16.67;10.32;;;;;;;15.40;40.42;100730.31;4857300;28;101014;-94
2024/02/14 09:37:56;;;;;;;24.77;9.93;;;;;;;15.23;40.54;100735.53;4820127;29;100992;-94
2024/02/14 09:40:23;;;;;;;14.38;9.35;;;;;;;15.18;40.54;100734.91;4839081;29;98122;-95
2024/02/14 09:43:02;;;;;;;14.93;9.65;;;;;;;15.28;40.95;100735.34;4838092;28;96996;-94
2024/02/14 09:45:28;;;;;;;15.20;9.73;;;;;;;15.56;40.97;100732.22;4842627;29;101446;-95
2024/02/14 09:47:55;;;;;;;20.48;10.52;;;;;;;15.40;40.60;100724.16;4834988;29;100213;-90
2024/02/14 09:50:21;;;;;;;20.00;10.18;;;;;;;14.97;41.00;100733.25;4840444;29;96814;-92
2024/02/14 09:52:48;;;;;;;13.45;8.27;;;;;;;14.99;40.85;100739.34;4871069;28;97117;-92
2024/02/14 09:55:15;;;;;;;16.67;9.10;;;;;;;14.65;42.07;100733.75;4839305;29;97722;-93
2024/02/14 09:57:42;;;;;;;16.25;9.75;;;;;;;14.14;43.11;100744.78;4838839;29;101037;-94
2024/02/14 10:00:10;;;;;;;20.35;9.68;;;;;;;14.63;42.26;100732.09;4833887;29;97945;-94
2024/02/14 10:02:35;;;;;;;12.90;7.85;;;;;;;14.28;41.63;100729.19;4842547;29;96864;-95
2024/02/14 10:05:01;;;;;;;12.02;7.47;;;;;;;14.00;42.32;100730.38;4852934;29;98274;-92
2024/02/14 10:07:27;;;;;;;15.30;8.55;;;;;;;13.86;43.22;100726.59;4821680;29;100015;-94
2024/02/14 10:09:57;;;;;;;15.35;8.43;;;;;;;13.49;43.45;100733.34;4838548;29;97723;-91
2024/02/14 10:12:22;;;;;;;13.70;8.05;;;;;;;13.10;45.31;100720.75;4831215;29;96826;-89
2024/02/14 10:14:48;;;;;;;13.90;7.55;;;;;;;12.51;45.45;100723.81;4820786;29;100397;-86
2024/02/14 10:17:20;;;;;;;14.13;8.55;;;;;;;11.97;47.09;100726.53;4850526;29;97927;-84
2024/02/14 10:19:56;;;;;;;;;;;;;;;12.00;46.75;100715.91;4858749;29;96842;-83
2024/02/14 10:22:21;;;;;;;17.42;6.95;;;;;;;11.71;47.84;100708.09;4857203;29;96845;-82
2024/02/14 10:24:47;;;;;;;12.50;7.47;;;;;;;11.63;48.10;100705.69;4873929;28;96977;-80
2024/02/14 10:27:15;;;;;;;13.65;6.60;;;;;;;11.79;47.81;100695.53;4847177;29;100439;-79
2024/02/14 10:30:28;;;;;;;14.50;7.40;;;;;;;11.35;48.98;100696.97;4834568;29;96889;-79
2024/02/14 10:33:19;;;;;;;13.13;6.90;;;;;;;11.68;49.41;100692.41;4866350;29;96667;-83
2024/02/14 10:40:06;;;;;;;11.63;6.72;;;;;;;11.61;49.61;100673.34;4863741;29;96612;-80
2024/02/14 10:42:39;;;;;;;13.32;6.80;;;;;;;11.74;49.29;100673.78;4856821;29;96724;-79
2024/02/14 10:45:05;;;;;;;9.80;5.90;;;;;;;11.79;49.13;100666.63;4841456;29;96832;-80
2024/02/14 10:47:35;;;;;;;14.93;6.00;;;;;;;11.49;48.83;100665.84;4823894;29;100598;-78
2024/02/14 10:50:07;;;;;;;11.00;5.13;;;;;;;11.62;49.10;100667.16;4824831;29;97560;-80
2024/02/14 10:52:35;;;;;;;8.57;5.88;;;;;;;11.72;48.92;100667.72;4816819;29;96893;-80
2024/02/14 11:02:49;;;;;;;8.88;5.47;;;;;;;12.04;48.42;100666.66;4793671;29;98152;-79
2024/02/14 11:05:16;;;;;;;11.00;5.28;;;;;;;12.12;48.52;100656.72;4778755;29;96950;-80
2024/02/14 11:08:09;;;;;;;10.88;4.60;;;;;;;11.96;48.69;100656.41;4774622;29;96969;-80
2024/02/14 11:10:37;;;;;;;9.00;5.22;;;;;;;11.64;49.48;100649.59;4770615;29;98028;-80
2024/02/14 11:13:33;;;;;;;11.98;4.75;;;;;;;11.55;49.65;100650.75;4793418;29;100905;-79
2024/02/14 11:16:04;;;;;;;9.45;4.88;;;;;;;11.30;49.83;100645.41;4795117;29;96642;-80
2024/02/14 11:19:09;;;;;;;9.50;5.07;;;;;;;11.26;50.79;100643.78;4797521;29;96914;-82
2024/02/14 11:21:37;;;;;;;13.38;4.57;;;;;;;11.25;50.56;100638.56;4779747;29;98268;-81
2024/02/14 11:24:09;;;;;;;8.02;4.40;;;;;;;11.23;49.48;100617.63;4776474;29;101441;-81
2024/02/14 11:34:38;;;;;;;15.98;6.53;;;;;;;11.71;49.58;100623.94;4810343;28;97050;-80
2024/02/14 11:37:05;;;;;;;14.63;5.57;;;;;;;11.60;50.10;100621.66;4814232;29;99062;-80
2024/02/14 11:39:33;;;;;;;12.77;6.40;;;;;;;11.54;50.28;100621.84;4845133;29;96645;-80
2024/02/14 11:42:25;;;;;;;28.48;10.43;;;;;;;11.57;49.65;100613.88;4830616;29;96781;-80
2024/02/14 11:48:29;;;;;;;10.18;5.72;;;;;;;11.55;50.18;100607.81;4842803;29;96778;-79
2024/02/14 11:54:51;;;;;;;57.20;17.42;;;;;;;11.33;49.71;100597.16;4840776;29;96581;-79
2024/02/14 12:01:57;;;;;;;9.75;4.43;;;;;;;11.37;49.03;100596.13;4823328;29;97026;-79